createdAt,value
2018-06-04T00:00:52.641Z,101382.75
2018-06-04T00:02:29.827Z,101341.20
2018-06-04T00:04:06.687Z,101364.41
2018-06-04T00:05:43.820Z,101401.49
2018-06-04T00:07:20.226Z,101402.47
2018-06-04T00:08:56.500Z,101456.41
2018-06-04T00:10:33.207Z,101444.44
2018-06-04T00:12:09.963Z,101424.75
2018-06-04T00:13:46.382Z,101331.91
2018-06-04T00:15:24.322Z,101189.97
2018-06-04T00:17:01.638Z,101134.19
2018-06-04T00:18:38.515Z,101015.19
2018-06-04T00:20:15.550Z,100980.86
2018-06-04T00:21:51.843Z,100903.70
2018-06-04T00:23:33.942Z,100845.95
2018-06-04T00:25:10.729Z,100812.94
2018-06-04T00:26:48.038Z,100829.80
2018-06-04T00:28:24.219Z,100885.02
2018-06-04T00:30:00.307Z,100868.97
2018-06-04T00:31:37.035Z,100879.30
2018-06-04T00:33:13.319Z,100978.16
2018-06-04T00:34:49.624Z,101036.53
2018-06-04T00:36:25.929Z,101080.24
2018-06-04T00:38:02.606Z,101127.98
2018-06-04T00:39:39.073Z,101197.08
2018-06-04T00:41:16.236Z,101288.17
2018-06-04T00:42:54.175Z,101280.62
2018-06-04T00:44:33.926Z,101271.67
2018-06-04T00:46:11.385Z,101282.85
2018-06-04T00:47:49.024Z,101192.67
2018-06-04T00:49:25.385Z,101210.14
2018-06-04T00:51:02.632Z,101221.69
2018-06-04T00:52:40.152Z,101215.08
2018-06-04T00:54:16.521Z,101199.84
2018-06-04T00:56:09.213Z,101207.91
2018-06-04T00:57:46.501Z,101278.38
2018-06-04T00:59:22.996Z,101282.03
2018-06-04T01:00:59.715Z,101300.80
2018-06-04T01:02:36.022Z,101306.16
2018-06-04T01:04:12.579Z,101282.03
2018-06-04T01:05:50.198Z,101262.83
2018-06-04T01:07:26.398Z,101281.16
2018-06-04T01:09:07.143Z,101282.09
2018-06-04T01:10:43.893Z,101357.11
2018-06-04T01:12:20.028Z,101428.93
2018-06-04T01:13:57.611Z,101353.92
2018-06-04T01:15:34.820Z,101256.59
2018-06-04T01:17:12.043Z,101202.21
2018-06-04T01:18:49.118Z,101164.30
2018-06-04T01:20:25.967Z,101182.55
2018-06-04T01:22:02.748Z,101138.00
2018-06-04T01:23:39.334Z,101057.30
2018-06-04T01:25:15.646Z,101101.82
2018-06-04T01:26:52.686Z,101101.04
2018-06-04T01:28:29.364Z,101117.05
2018-06-04T01:30:06.345Z,101111.70
2018-06-04T01:31:43.373Z,101078.34
2018-06-04T01:33:20.271Z,101004.25
2018-06-04T01:35:00.186Z,100985.11
2018-06-04T01:36:37.440Z,100931.63
2018-06-04T01:38:13.761Z,100926.79
2018-06-04T01:39:52.079Z,100968.64
2018-06-04T01:41:29.335Z,100992.72
2018-06-04T01:43:05.664Z,101104.59
2018-06-04T01:44:42.248Z,101083.17
2018-06-04T01:46:18.765Z,101005.13
2018-06-04T01:47:58.745Z,101013.66
2018-06-04T01:49:35.102Z,101081.89
2018-06-04T01:51:11.627Z,101072.11
2018-06-04T01:55:59.873Z,101002.13
2018-06-04T01:57:36.146Z,101011.89
2018-06-04T01:59:12.466Z,101019.47
2018-06-04T02:00:49.640Z,101025.36
2018-06-04T02:02:26.444Z,100996.84
2018-06-04T02:04:03.024Z,100960.30
2018-06-04T02:05:40.466Z,100995.49
2018-06-04T02:07:17.354Z,101031.64
2018-06-04T02:08:53.901Z,101010.61
2018-06-04T02:10:30.194Z,101020.95
2018-06-04T02:12:07.128Z,101047.23
2018-06-04T02:13:44.349Z,101071.36
2018-06-04T02:15:23.424Z,100985.27
2018-06-04T02:17:00.699Z,100930.91
2018-06-04T02:18:38.070Z,100778.65
2018-06-04T02:20:15.087Z,100583.36
2018-06-04T02:21:51.886Z,100467.91
2018-06-04T02:23:28.227Z,100350.71
2018-06-04T02:25:04.927Z,100331.57
2018-06-04T02:26:42.875Z,100321.80
2018-06-04T02:28:19.630Z,100333.27
2018-06-04T02:29:56.983Z,100433.69
2018-06-04T02:31:33.778Z,100605.19
2018-06-04T02:33:10.079Z,100727.52
2018-06-04T02:34:46.464Z,100815.64
2018-06-04T02:36:22.817Z,100852.53
2018-06-04T02:37:59.532Z,100934.97
2018-06-04T02:39:36.413Z,100975.47
2018-06-04T02:41:12.767Z,100973.71
2018-06-04T02:42:49.548Z,100988.45
2018-06-04T02:44:25.880Z,100996.97
2018-06-04T02:46:03.016Z,100980.41
2018-06-04T02:47:40.766Z,100959.55
2018-06-04T02:49:18.610Z,100897.23
2018-06-04T02:50:54.963Z,100874.50
2018-06-04T02:52:32.659Z,100856.25
2018-06-04T02:54:08.978Z,100813.06
2018-06-04T02:55:45.520Z,100810.36
2018-06-04T02:57:22.418Z,100825.56
2018-06-04T02:58:59.178Z,100842.02
2018-06-04T03:00:36.546Z,100914.58
2018-06-04T03:02:13.046Z,100991.69
2018-06-04T03:05:21.163Z,101111.17
2018-06-04T03:06:58.012Z,101128.63
2018-06-04T03:08:34.300Z,101157.16
2018-06-04T03:10:10.582Z,101109.44
2018-06-04T03:11:47.487Z,101125.98
2018-06-04T03:13:24.080Z,101158.05
2018-06-04T03:15:00.453Z,101099.62
2018-06-04T03:16:38.501Z,101103.22
2018-06-04T03:18:16.597Z,101094.28
2018-06-04T03:19:53.431Z,101034.64
2018-06-04T03:21:29.933Z,101038.22
2018-06-04T03:23:06.177Z,101018.48
2018-06-04T03:24:43.388Z,101002.10
2018-06-04T03:26:19.666Z,100981.11
2018-06-04T03:27:56.031Z,100859.52
2018-06-04T03:29:32.334Z,100883.61
2018-06-04T03:31:09.326Z,100794.52
2018-06-04T03:32:46.337Z,100732.69
2018-06-04T03:34:25.134Z,100833.73
2018-06-04T03:36:02.760Z,100830.63
2018-06-04T03:37:39.181Z,100753.58
2018-06-04T03:39:15.390Z,100793.27
2018-06-04T03:40:52.094Z,100787.05
2018-06-04T03:42:28.726Z,100730.52
2018-06-04T03:44:06.365Z,100710.50
2018-06-04T03:45:43.282Z,100783.54
2018-06-04T03:47:19.587Z,100889.42
2018-06-04T03:48:56.748Z,100904.60
2018-06-04T03:50:33.366Z,100933.09
2018-06-04T03:52:09.512Z,101056.11
2018-06-04T03:53:46.418Z,101184.53
2018-06-04T03:55:22.725Z,101333.60
2018-06-04T03:56:59.656Z,101442.14
2018-06-04T03:58:37.233Z,101360.40
2018-06-04T04:00:15.191Z,101339.84
2018-06-04T04:01:52.473Z,101314.45
2018-06-04T04:03:29.194Z,101208.29
2018-06-04T04:05:05.569Z,101309.61
2018-06-04T04:06:41.843Z,101469.91
2018-06-04T04:08:18.136Z,101450.75
2018-06-04T04:09:55.063Z,101501.14
2018-06-04T04:11:31.271Z,101559.27
2018-06-04T04:13:07.979Z,101753.89
2018-06-04T04:14:44.734Z,101939.28
2018-06-04T04:16:22.154Z,102205.22
2018-06-04T04:17:58.812Z,102373.94
2018-06-04T04:19:35.959Z,102445.42
2018-06-04T04:21:12.187Z,102426.53
2018-06-04T04:22:50.584Z,102280.57
2018-06-04T04:24:26.944Z,102055.45
2018-06-04T04:26:03.264Z,102078.33
2018-06-04T04:27:39.581Z,102012.84
2018-06-04T04:29:16.392Z,102057.74
2018-06-04T04:30:53.200Z,102096.25
2018-06-04T04:32:29.555Z,101995.83
2018-06-04T04:34:05.920Z,102076.64
2018-06-04T04:35:45.566Z,102149.70
2018-06-04T04:37:21.832Z,102334.58
2018-06-04T04:38:58.041Z,102544.33
2018-06-04T04:40:34.353Z,102523.69
2018-06-04T04:42:11.517Z,102436.13
2018-06-04T04:43:49.426Z,102523.69
2018-06-04T04:45:27.778Z,102543.52
2018-06-04T04:47:04.486Z,102652.75
2018-06-04T04:48:41.149Z,102573.59
2018-06-04T04:50:20.238Z,102413.20
2018-06-04T04:51:56.760Z,102600.66
2018-06-04T04:53:32.969Z,102888.13
2018-06-04T04:55:09.259Z,103084.59
2018-06-04T04:56:45.567Z,103033.28
2018-06-04T04:58:21.806Z,103061.69
2018-06-04T04:59:58.091Z,103146.46
2018-06-04T05:01:35.940Z,103233.61
2018-06-04T05:03:12.175Z,103243.06
2018-06-04T05:04:48.779Z,103256.12
2018-06-04T05:06:25.094Z,103122.98
2018-06-04T05:08:01.803Z,102747.34
2018-06-04T05:09:38.163Z,102777.48
2018-06-04T05:11:14.457Z,102781.09
2018-06-04T05:12:51.064Z,102881.45
2018-06-04T05:14:27.829Z,102573.69
2018-06-04T05:16:04.493Z,102402.48
2018-06-04T05:17:40.858Z,102205.83
2018-06-04T05:19:17.120Z,102036.80
2018-06-04T05:20:53.980Z,102166.73
2018-06-04T05:22:30.212Z,102421.75
2018-06-04T05:24:11.523Z,102583.02
2018-06-04T05:25:47.798Z,102461.73
2018-06-04T05:27:24.467Z,102463.56
2018-06-04T05:29:01.710Z,102599.69
2018-06-04T05:30:39.205Z,102920.60
2018-06-04T05:32:15.478Z,103213.66
2018-06-04T05:33:52.437Z,103434.84
2018-06-04T05:35:28.964Z,103586.70
2018-06-04T05:37:07.823Z,103668.97
2018-06-04T05:38:44.093Z,103671.23
2018-06-04T05:40:20.520Z,103753.12
2018-06-04T05:41:56.895Z,103867.27
2018-06-04T05:43:33.203Z,103964.63
2018-06-04T05:45:09.539Z,103961.42
2018-06-04T05:46:46.533Z,103936.99
2018-06-04T05:48:22.845Z,103505.36
2018-06-04T05:49:59.070Z,103294.88
2018-06-04T05:51:35.280Z,103399.67
2018-06-04T05:53:12.039Z,103618.38
2018-06-04T05:54:48.301Z,103773.03
2018-06-04T05:56:24.578Z,103575.42
2018-06-04T05:58:00.828Z,103255.11
2018-06-04T05:59:37.507Z,103194.66
2018-06-04T06:01:14.179Z,103050.36
2018-06-04T06:02:50.613Z,103224.48
2018-06-04T06:04:26.976Z,103554.62
2018-06-04T06:06:03.563Z,103784.36
2018-06-04T06:07:39.787Z,103961.36
2018-06-04T06:09:16.105Z,103961.36
2018-06-04T06:10:52.537Z,104073.28
2018-06-04T06:12:29.244Z,104209.31
2018-06-04T06:14:06.186Z,104123.13
2018-06-04T06:15:42.658Z,103941.84
2018-06-04T06:17:18.977Z,103727.30
2018-06-04T06:18:55.618Z,103907.92
2018-06-04T06:20:31.974Z,103656.67
2018-06-04T06:22:09.550Z,103507.58
2018-06-04T06:23:45.776Z,103741.72
2018-06-04T06:25:22.555Z,103796.52
2018-06-04T06:26:58.925Z,103745.34
2018-06-04T06:28:35.189Z,103546.82
2018-06-04T06:30:11.557Z,103533.28
2018-06-04T06:31:48.433Z,103737.15
2018-06-04T06:33:24.934Z,103757.06
2018-06-04T06:35:01.243Z,103640.87
2018-06-04T06:36:37.560Z,103520.56
2018-06-04T06:38:14.281Z,103690.99
2018-06-04T06:39:51.383Z,103841.69
2018-06-04T06:41:28.062Z,103941.75
2018-06-04T06:43:04.434Z,104181.50
2018-06-04T06:44:41.550Z,104220.50
2018-06-04T06:46:18.184Z,104198.73
2018-06-04T06:47:54.785Z,103953.95
2018-06-04T06:49:31.175Z,103382.25
2018-06-04T06:51:07.842Z,103060.96
2018-06-04T06:52:44.369Z,103097.42
2018-06-04T06:54:21.680Z,103283.30
2018-06-04T06:56:00.065Z,103481.13
2018-06-04T06:57:36.433Z,103342.37
2018-06-04T06:59:13.571Z,103404.78
2018-06-04T07:00:50.289Z,103348.77
2018-06-04T07:02:28.273Z,103574.64
2018-06-04T07:04:04.534Z,103591.77
2018-06-04T07:05:41.177Z,103564.66
2018-06-04T07:07:17.492Z,103832.98
2018-06-04T07:08:54.381Z,103765.52
2018-06-04T07:10:30.669Z,103660.08
2018-06-04T07:12:07.993Z,103388.87
2018-06-04T07:13:44.263Z,103537.06
2018-06-04T07:15:21.098Z,103780.36
2018-06-04T07:16:58.836Z,103837.40
2018-06-04T07:18:35.179Z,103888.52
2018-06-04T07:20:12.338Z,103840.53
2018-06-04T07:21:48.788Z,103829.23
2018-06-04T07:23:25.147Z,103918.42
2018-06-04T07:25:01.510Z,103650.47
2018-06-04T07:26:37.738Z,103495.41
2018-06-04T07:28:14.414Z,103414.48
2018-06-04T07:29:53.211Z,103451.13
2018-06-04T07:31:30.366Z,103785.25
2018-06-04T07:33:07.811Z,103897.52
2018-06-04T07:34:44.962Z,103875.35
2018-06-04T07:36:21.856Z,103879.38
2018-06-04T07:37:59.021Z,103963.16
2018-06-04T07:39:35.486Z,103648.56
2018-06-04T07:41:12.283Z,103539.60
2018-06-04T07:42:48.684Z,103623.70
2018-06-04T07:44:25.007Z,103736.77
2018-06-04T07:46:01.656Z,103768.84
2018-06-04T07:47:38.287Z,103565.36
2018-06-04T07:49:14.584Z,103320.84
2018-06-04T07:50:52.265Z,103082.22
2018-06-04T07:52:28.653Z,102939.77
2018-06-04T07:54:06.932Z,102853.28
2018-06-04T07:55:43.221Z,103042.48
2018-06-04T07:57:19.929Z,103165.98
2018-06-04T07:58:57.231Z,103064.54
2018-06-04T08:00:34.793Z,102971.70
2018-06-04T08:02:12.035Z,103279.30
2018-06-04T08:03:49.405Z,103413.89
2018-06-04T08:05:25.726Z,103472.11
2018-06-04T08:07:03.754Z,103345.16
2018-06-04T08:08:40.423Z,103370.88
2018-06-04T08:10:17.199Z,103334.75
2018-06-04T08:11:53.599Z,103082.94
2018-06-04T08:13:31.495Z,103110.03
2018-06-04T08:15:07.925Z,103188.48
2018-06-04T08:16:45.810Z,103048.69
2018-06-04T08:18:24.453Z,102897.28
2018-06-04T08:20:01.096Z,103087.87
2018-06-04T08:21:37.473Z,102982.80
2018-06-04T08:23:13.826Z,102846.77
2018-06-04T08:24:50.073Z,102885.92
2018-06-04T08:26:26.729Z,102849.91
2018-06-04T08:28:03.246Z,102958.96
2018-06-04T08:29:39.610Z,103106.78
2018-06-04T08:31:16.690Z,103143.27
2018-06-04T08:32:53.074Z,103356.77
2018-06-04T08:34:29.801Z,103522.12
2018-06-04T08:36:06.387Z,103569.99
2018-06-04T08:37:43.048Z,103436.22
2018-06-04T08:39:19.312Z,103491.80
2018-06-04T08:40:55.664Z,103551.03
2018-06-04T08:42:32.009Z,103738.73
2018-06-04T08:44:09.130Z,103817.88
2018-06-04T08:45:45.690Z,103591.26
2018-06-04T08:47:21.912Z,103478.27
2018-06-04T08:48:58.115Z,103559.61
2018-06-04T08:50:34.682Z,103482.31
2018-06-04T08:52:13.001Z,103317.44
2018-06-04T08:53:49.205Z,103093.67
2018-06-04T08:55:25.502Z,103029.98
2018-06-04T08:57:01.748Z,103059.38
2018-06-04T08:58:37.967Z,103069.64
2018-06-04T09:00:16.833Z,103182.39
2018-06-04T09:01:53.401Z,103322.77
2018-06-04T09:03:29.902Z,103253.72
2018-06-04T09:05:06.267Z,103085.91
2018-06-04T09:06:42.509Z,103019.55
2018-06-04T09:08:18.812Z,103053.84
2018-06-04T09:09:55.426Z,103166.57
2018-06-04T09:11:31.537Z,103310.56
2018-06-04T09:13:08.029Z,103348.02
2018-06-04T09:14:44.364Z,103546.77
2018-06-04T09:16:21.290Z,103649.92
2018-06-04T09:17:57.688Z,103411.17
2018-06-04T09:19:33.841Z,103518.83
2018-06-04T09:21:10.337Z,103672.96
2018-06-04T09:22:46.879Z,103691.05
2018-06-04T09:24:23.973Z,103737.64
2018-06-04T09:26:00.306Z,103879.75
2018-06-04T09:27:36.576Z,103871.59
2018-06-04T09:29:13.490Z,103902.89
2018-06-04T09:30:50.414Z,103832.63
2018-06-04T09:32:26.783Z,103697.87
2018-06-04T09:34:03.120Z,103734.44
2018-06-04T09:35:39.893Z,103834.89
2018-06-04T09:37:16.104Z,103641.73
2018-06-04T09:38:52.292Z,103447.75
2018-06-04T09:40:28.531Z,103449.94
2018-06-04T09:42:05.169Z,103498.77
2018-06-04T09:43:41.443Z,103612.22
2018-06-04T09:45:19.041Z,103645.70
2018-06-04T09:46:55.546Z,103771.08
2018-06-04T09:48:32.109Z,103780.06
2018-06-04T09:50:08.628Z,103774.70
2018-06-04T09:51:45.070Z,103702.67
2018-06-04T09:53:21.352Z,103735.72
2018-06-04T09:54:57.840Z,103792.69
2018-06-04T09:56:34.056Z,103748.34
2018-06-04T09:58:10.543Z,103814.84
2018-06-04T09:59:46.773Z,103840.16
2018-06-04T10:01:23.602Z,103547.46
2018-06-04T10:03:00.048Z,103429.53
2018-06-04T10:04:36.322Z,103368.97
2018-06-04T10:06:12.859Z,103271.84
2018-06-04T10:07:49.044Z,103164.95
2018-06-04T10:09:26.304Z,103083.26
2018-06-04T10:11:02.772Z,103104.47
2018-06-04T10:12:39.057Z,103217.64
2018-06-04T10:14:15.504Z,103345.84
2018-06-04T10:15:51.991Z,103428.52
2018-06-04T10:17:29.012Z,103313.77
2018-06-04T10:19:05.296Z,103412.67
2018-06-04T10:20:41.875Z,103475.08
2018-06-04T10:22:18.380Z,103500.33
2018-06-04T10:23:54.504Z,103484.95
2018-06-04T10:25:31.346Z,103521.50
2018-06-04T10:27:08.029Z,103657.22
2018-06-04T10:28:44.329Z,103666.23
2018-06-04T10:30:20.861Z,103682.48
2018-06-04T10:31:57.658Z,103804.25
2018-06-04T10:33:35.013Z,103740.45
2018-06-04T10:35:11.763Z,103690.22
2018-06-04T10:36:49.158Z,103617.86
2018-06-04T10:38:25.424Z,103501.60
2018-06-04T10:40:02.056Z,103193.63
2018-06-04T10:41:38.325Z,103154.80
2018-06-04T10:43:14.829Z,103370.94
2018-06-04T10:44:51.005Z,103514.20
2018-06-04T10:46:27.578Z,103586.09
2018-06-04T10:48:04.073Z,103558.06
2018-06-04T10:49:40.385Z,103582.06
2018-06-04T10:51:16.901Z,103569.80
2018-06-04T10:52:53.580Z,103488.37
2018-06-04T10:54:30.425Z,103239.05
2018-06-04T10:56:06.779Z,103113.67
2018-06-04T10:57:43.213Z,103040.98
2018-06-04T10:59:19.860Z,103155.56
2018-06-04T11:00:56.212Z,103185.31
2018-06-04T11:02:33.166Z,103170.44
2018-06-04T11:04:09.695Z,103428.21
2018-06-04T11:05:46.283Z,103499.55
2018-06-04T11:07:22.668Z,103551.61
2018-06-04T11:08:59.001Z,103617.58
2018-06-04T11:10:36.122Z,103623.48
2018-06-04T11:12:13.154Z,103669.63
2018-06-04T11:13:49.460Z,103640.62
2018-06-04T11:15:29.320Z,103590.88
2018-06-04T11:17:05.625Z,103736.11
2018-06-04T11:18:42.248Z,103582.28
2018-06-04T11:20:18.759Z,103599.47
2018-06-04T11:21:55.607Z,103376.61
2018-06-04T11:23:32.837Z,103370.26
2018-06-04T11:25:09.584Z,103400.56
2018-06-04T11:26:46.020Z,103598.09
2018-06-04T11:28:22.471Z,103561.91
2018-06-04T11:29:58.921Z,103478.21
2018-06-04T11:31:35.817Z,103294.34
2018-06-04T11:33:12.206Z,103214.48
2018-06-04T11:34:49.897Z,103193.70
2018-06-04T11:36:26.904Z,103179.69
2018-06-04T11:38:04.390Z,103221.20
2018-06-04T11:39:40.750Z,103292.98
2018-06-04T11:41:17.218Z,103364.75
2018-06-04T11:42:54.364Z,103269.95
2018-06-04T11:44:30.929Z,103185.94
2018-06-04T11:46:11.854Z,103306.46
2018-06-04T11:47:52.497Z,103471.34
2018-06-04T11:49:29.283Z,103663.53
2018-06-04T11:51:07.224Z,103735.91
2018-06-04T11:52:48.079Z,103628.23
2018-06-04T11:54:25.216Z,103582.13
2018-06-04T11:56:02.013Z,103678.41
2018-06-04T11:57:41.639Z,103650.84
2018-06-04T11:59:19.744Z,103505.63
2018-06-04T12:00:58.250Z,103508.36
2018-06-04T12:02:38.243Z,103480.73
2018-06-04T12:04:14.704Z,103586.57
2018-06-04T12:05:52.574Z,103805.09
2018-06-04T12:07:29.459Z,103885.66
2018-06-04T12:09:09.165Z,103917.34
2018-06-04T12:10:48.776Z,103884.30
2018-06-04T12:12:26.615Z,103862.12
2018-06-04T12:14:03.471Z,103944.05
2018-06-04T12:15:40.228Z,103998.02
2018-06-04T12:17:16.551Z,104096.88
2018-06-04T12:18:52.837Z,104120.86
2018-06-04T12:20:29.490Z,103928.20
2018-06-04T12:22:05.920Z,103829.87
2018-06-04T12:23:43.119Z,103716.29
2018-06-04T12:25:22.900Z,103730.74
2018-06-04T12:27:00.234Z,103740.66
2018-06-04T12:28:37.787Z,103708.13
2018-06-04T12:30:16.538Z,103711.25
2018-06-04T12:31:53.711Z,103764.69
2018-06-04T12:33:30.629Z,103749.27
2018-06-04T12:35:08.484Z,103499.12
2018-06-04T12:36:54.381Z,103424.50
2018-06-04T12:38:31.622Z,103628.88
2018-06-04T12:40:09.784Z,103794.94
2018-06-04T12:41:47.947Z,103873.23
2018-06-04T12:43:24.396Z,103806.70
2018-06-04T12:45:01.387Z,103840.16
2018-06-04T12:46:41.051Z,103890.39
2018-06-04T12:48:19.263Z,103945.66
2018-06-04T12:49:56.501Z,103979.64
2018-06-04T12:51:33.066Z,103970.57
2018-06-04T12:53:10.923Z,103935.64
2018-06-04T12:54:48.259Z,103798.02
2018-06-04T12:56:25.553Z,103740.53
2018-06-04T12:58:02.509Z,103645.00
2018-06-04T12:59:40.749Z,103653.55
2018-06-04T13:01:18.783Z,103676.67
2018-06-04T13:02:55.077Z,103671.20
2018-06-04T13:04:31.515Z,103667.52
2018-06-04T13:06:08.233Z,103681.08
2018-06-04T13:07:47.582Z,103703.73
2018-06-04T13:09:23.927Z,103689.24
2018-06-04T13:11:00.304Z,103711.42
2018-06-04T13:12:38.372Z,103641.28
2018-06-04T13:16:25.464Z,103635.34
2018-06-04T13:18:23.834Z,103667.95
2018-06-04T13:20:00.823Z,103606.88
2018-06-04T13:21:38.173Z,103572.95
2018-06-04T13:23:15.403Z,103483.33
2018-06-04T13:24:53.960Z,103473.94
2018-06-04T13:26:31.476Z,103523.13
2018-06-04T13:28:08.599Z,103524.92
2018-06-04T13:29:46.341Z,103576.45
2018-06-04T13:31:24.636Z,103681.89
2018-06-04T13:33:02.552Z,103828.54
2018-06-04T13:34:42.309Z,103801.33
2018-06-04T13:36:18.635Z,103679.58
2018-06-04T13:37:59.832Z,103591.80
2018-06-04T13:39:36.167Z,103522.58
2018-06-04T13:41:15.704Z,103392.39
2018-06-04T13:42:52.147Z,103466.50
2018-06-04T13:44:29.683Z,103468.77
2018-06-04T13:46:07.756Z,103488.63
2018-06-04T13:47:44.664Z,103419.48
2018-06-04T13:49:21.031Z,103483.16
2018-06-04T13:50:58.011Z,103570.86
2018-06-04T13:52:34.428Z,103470.98
2018-06-04T13:54:11.839Z,103528.81
2018-06-04T13:55:49.013Z,103671.29
2018-06-04T13:57:27.692Z,103620.59
2018-06-04T13:59:04.687Z,103504.34
2018-06-04T14:00:45.427Z,103404.03
2018-06-04T14:02:23.123Z,103384.15
2018-06-04T14:04:02.225Z,103409.87
2018-06-04T14:05:39.250Z,103287.45
2018-06-04T14:07:18.576Z,103251.34
2018-06-04T14:08:55.746Z,103332.55
2018-06-04T14:10:32.701Z,103286.08
2018-06-04T14:12:09.148Z,103299.17
2018-06-04T14:13:47.115Z,103301.44
2018-06-04T14:15:27.780Z,103325.80
2018-06-04T14:17:04.508Z,103377.31
2018-06-04T14:18:41.807Z,103337.07
2018-06-04T14:20:18.218Z,103244.05
2018-06-04T14:21:58.024Z,103270.24
2018-06-04T14:23:35.732Z,103283.77
2018-06-04T14:25:12.736Z,103369.11
2018-06-04T14:26:50.910Z,103457.66
2018-06-04T14:28:29.146Z,103395.31
2018-06-04T14:30:09.961Z,103421.06
2018-06-04T14:31:48.506Z,103529.96
2018-06-04T14:33:25.455Z,103557.56
2018-06-04T14:35:05.311Z,103549.41
2018-06-04T14:36:43.415Z,103573.38
2018-06-04T14:38:24.462Z,103563.38
2018-06-04T14:40:02.005Z,103557.48
2018-06-04T14:41:42.284Z,103571.06
2018-06-04T14:43:21.824Z,103605.47
2018-06-04T14:44:59.423Z,103537.61
2018-06-04T14:46:39.482Z,103516.38
2018-06-04T14:48:18.466Z,103382.17
2018-06-04T14:49:57.635Z,103169.45
2018-06-04T14:51:34.897Z,103259.31
2018-06-04T14:53:14.036Z,103242.12
2018-06-04T14:54:52.507Z,103208.34
2018-06-04T14:56:29.978Z,103072.95
2018-06-04T14:58:09.832Z,103048.58
2018-06-04T14:59:46.738Z,103108.53
2018-06-04T15:01:25.081Z,103185.66
2018-06-04T15:03:03.006Z,103225.88
2018-06-04T15:04:41.951Z,103249.76
2018-06-04T15:06:21.080Z,103252.06
2018-06-04T15:07:59.360Z,103178.96
2018-06-04T15:09:40.213Z,103219.56
2018-06-04T15:11:17.931Z,103242.55
2018-06-04T15:12:54.842Z,103285.86
2018-06-04T15:14:31.797Z,103269.17
2018-06-04T15:16:09.471Z,103275.01
2018-06-04T15:17:48.232Z,103284.48
2018-06-04T15:19:25.641Z,103237.98
2018-06-04T15:21:03.921Z,103225.41
2018-06-04T15:22:42.256Z,103188.81
2018-06-04T15:24:24.689Z,103164.89
2018-06-04T15:26:04.580Z,103115.73
2018-06-04T15:27:41.030Z,103112.53
2018-06-04T15:29:18.390Z,103087.72
2018-06-04T15:30:59.616Z,103079.12
2018-06-04T15:32:42.597Z,102963.27
2018-06-04T15:34:19.973Z,102972.27
2018-06-04T15:35:59.298Z,103006.51
2018-06-04T15:37:37.448Z,102988.95
2018-06-04T15:39:17.284Z,103017.29
2018-06-04T15:40:53.723Z,103104.81
2018-06-04T15:42:31.311Z,103148.59
2018-06-04T15:44:09.367Z,103173.84
2018-06-04T15:46:21.827Z,103146.30
2018-06-04T15:48:00.644Z,103156.22
2018-06-04T15:49:40.730Z,103135.92
2018-06-04T15:51:17.732Z,103116.96
2018-06-04T15:52:54.569Z,103113.84
2018-06-04T15:54:33.535Z,103104.39
2018-06-04T15:56:10.948Z,103097.61
2018-06-04T15:57:50.296Z,103048.86
2018-06-04T15:59:27.338Z,102998.38
2018-06-04T16:01:04.580Z,102959.66
2018-06-04T16:02:41.751Z,102941.69
2018-06-04T16:04:18.070Z,102947.00
2018-06-04T16:05:54.375Z,102885.27
2018-06-04T16:07:31.335Z,102913.28
2018-06-04T16:09:14.383Z,102810.98
2018-06-04T16:10:51.581Z,102885.27
2018-06-04T16:12:28.607Z,102947.48
2018-06-04T16:14:05.539Z,103074.56
2018-06-04T16:15:42.370Z,102910.94
2018-06-04T16:17:20.705Z,102925.78
2018-06-04T16:19:04.517Z,102851.02
2018-06-04T16:20:44.675Z,102880.37
2018-06-04T16:22:22.611Z,102866.78
2018-06-04T16:24:03.338Z,102882.06
2018-06-04T16:27:24.044Z,102961.41
2018-06-04T16:29:02.281Z,102985.67
2018-06-04T16:30:42.911Z,103001.05
2018-06-04T16:32:21.555Z,102922.22
2018-06-04T16:33:58.837Z,102842.89
2018-06-04T16:35:37.453Z,102841.53
2018-06-04T16:37:16.636Z,102893.81
2018-06-04T16:38:58.319Z,102961.91
2018-06-04T16:40:34.877Z,102985.72
2018-06-04T16:42:13.433Z,102925.84
2018-06-04T16:43:51.742Z,102889.77
2018-06-04T16:45:31.357Z,102909.19
2018-06-04T16:47:11.855Z,102793.38
2018-06-04T16:48:51.664Z,102887.98
2018-06-04T16:50:31.597Z,102880.37
2018-06-04T16:52:10.007Z,102862.73
2018-06-04T16:53:48.627Z,102936.70
2018-06-04T16:55:27.161Z,102984.44
2018-06-04T16:57:05.282Z,102950.62
2018-06-04T16:58:45.925Z,102918.17
2018-06-04T17:00:28.448Z,102870.87
2018-06-04T17:02:10.281Z,102818.64
2018-06-04T17:03:48.604Z,102869.56
2018-06-04T17:05:25.708Z,102927.20
2018-06-04T17:07:02.309Z,102919.54
2018-06-04T17:08:38.872Z,102951.05
2018-06-04T17:10:15.616Z,102806.48
2018-06-04T17:11:53.077Z,102789.33
2018-06-04T17:13:30.020Z,102729.94
2018-06-04T17:15:08.637Z,102675.50
2018-06-04T17:16:46.753Z,102607.59
2018-06-04T17:20:09.037Z,102689.88
2018-06-04T17:21:56.914Z,102697.16
2018-06-04T17:23:34.522Z,102639.48
2018-06-04T17:25:12.256Z,102680.47
2018-06-04T17:26:51.560Z,102653.00
2018-06-04T17:28:31.756Z,102714.21
2018-06-04T17:30:12.424Z,102639.06
2018-06-04T17:32:01.307Z,102653.89
2018-06-04T17:33:40.672Z,102648.55
2018-06-04T17:35:34.223Z,102530.17
2018-06-04T17:37:16.447Z,102489.30
2018-06-04T17:38:55.606Z,102517.17
2018-06-04T17:40:35.047Z,102621.02
2018-06-04T17:42:12.062Z,102684.98
2018-06-04T17:43:51.065Z,102666.01
2018-06-04T17:45:29.380Z,102553.10
2018-06-04T17:47:07.174Z,102467.70
2018-06-04T17:48:46.132Z,102515.39
2018-06-04T17:50:22.565Z,102489.30
2018-06-04T17:52:03.512Z,102523.45
2018-06-04T17:53:41.764Z,102575.63
2018-06-04T17:55:22.506Z,102555.35
2018-06-04T17:57:00.578Z,102624.69
2018-06-04T17:58:37.074Z,102601.25
2018-06-04T18:00:34.090Z,102614.31
2018-06-04T18:02:10.737Z,102560.33
2018-06-04T18:03:48.683Z,102607.09
2018-06-04T18:05:25.336Z,102745.31
2018-06-04T18:07:02.440Z,102772.75
2018-06-04T18:08:39.291Z,102720.08
2018-06-04T18:10:17.371Z,102676.91
2018-06-04T18:11:55.510Z,102668.79
2018-06-04T18:13:31.932Z,102669.20
2018-06-04T18:15:11.397Z,102745.73
2018-06-04T18:18:21.585Z,102578.82
2018-06-04T18:19:59.074Z,102668.38
2018-06-04T18:21:38.473Z,102688.65
2018-06-04T18:23:16.710Z,102682.31
2018-06-04T18:24:58.318Z,102690.43
2018-06-04T18:26:38.147Z,102696.73
2018-06-04T18:28:16.261Z,102669.73
2018-06-04T18:31:42.697Z,102592.30
2018-06-04T18:33:20.266Z,102599.53
2018-06-04T18:34:59.289Z,102452.05
2018-06-04T18:36:43.468Z,102478.60
2018-06-04T18:38:22.678Z,102394.97
2018-06-04T18:39:59.343Z,102368.89
2018-06-04T18:41:36.657Z,102450.27
2018-06-04T18:43:17.095Z,102521.25
2018-06-04T18:45:01.043Z,102615.34
2018-06-04T18:46:43.461Z,102586.43